Kensington, Canada
Current Conditions -  °F | °C
As of 9:00 PM on Tuesday 21 Oct 2014 (Local Time) from CYYG Reporting Station
Broken Clouds Broken Clouds  
Wind Chill: 39°   Ceiling: 17000
Heat Index: 39°   Visibility: 15mi
Dew Point: 34°   Wind: 2mph
Humidity: 81%   Direction: 20°NNE
Pressure: 30.25"   Gusts: NA
Location:  46.43°N, 63.65°W
Report Text: CYYG 220000Z 02002KT 15SM FEW120 BKN170 04/01 A3025 RMK AC1AS4 SLP247
Loading
Personal Weather Stations






























Interactive Weather Map New forecast layout! Learn more

10-Day Weather Forecast

Advertisements
Track Severe Weather on mobile